createdAt,value
2019-03-08T00:00:07.489Z,73.52
2019-03-08T00:02:35.991Z,73.86
2019-03-08T00:05:05.093Z,74.06
2019-03-08T00:07:33.932Z,74.14
2019-03-08T00:10:02.380Z,74.31
2019-03-08T00:12:30.853Z,74.62
2019-03-08T00:14:59.480Z,74.91
2019-03-08T00:17:28.005Z,75.18
2019-03-08T00:19:56.459Z,75.43
2019-03-08T00:22:25.256Z,75.69
2019-03-08T00:24:53.803Z,76.04
2019-03-08T00:27:22.427Z,75.95
2019-03-08T00:29:50.973Z,75.75
2019-03-08T00:32:19.994Z,75.67
2019-03-08T00:34:48.430Z,75.68
2019-03-08T00:37:17.519Z,75.66
2019-03-08T00:39:45.997Z,74.84
2019-03-08T00:42:14.455Z,73.88
2019-03-08T00:44:42.977Z,73.59
2019-03-08T00:47:11.560Z,73.68
2019-03-08T00:49:40.006Z,73.82
2019-03-08T00:52:12.440Z,74.02
2019-03-08T00:54:40.888Z,74.04
2019-03-08T00:57:09.439Z,74.13
2019-03-08T00:59:38.058Z,74.53
2019-03-08T01:02:06.622Z,74.80
2019-03-08T01:04:35.255Z,75.04
2019-03-08T01:07:04.143Z,75.40
2019-03-08T01:09:32.594Z,75.43
2019-03-08T01:12:01.122Z,75.61
2019-03-08T01:14:29.667Z,75.65
2019-03-08T01:16:58.366Z,75.65
2019-03-08T01:19:26.891Z,75.73
2019-03-08T01:21:55.875Z,75.64
2019-03-08T01:24:25.319Z,75.35
2019-03-08T01:26:53.770Z,75.17
2019-03-08T01:29:22.326Z,74.98
2019-03-08T01:31:50.803Z,75.05
2019-03-08T01:34:20.170Z,74.95
2019-03-08T01:36:49.540Z,75.20
2019-03-08T01:39:18.063Z,75.47
2019-03-08T01:41:46.558Z,75.91
2019-03-08T01:44:15.091Z,76.15
2019-03-08T01:46:43.549Z,76.30
2019-03-08T01:49:12.015Z,76.12
2019-03-08T01:51:40.558Z,75.84
2019-03-08T01:54:09.034Z,75.54
2019-03-08T01:56:37.495Z,75.36
2019-03-08T01:59:06.225Z,75.28
2019-03-08T02:01:34.692Z,75.33
2019-03-08T02:04:03.216Z,75.07
2019-03-08T02:06:31.901Z,74.89
2019-03-08T02:09:00.356Z,74.68
2019-03-08T02:11:28.819Z,74.57
2019-03-08T02:13:57.449Z,74.54
2019-03-08T02:16:25.902Z,74.45
2019-03-08T02:18:54.354Z,74.47
2019-03-08T02:21:23.006Z,74.42
2019-03-08T02:23:51.460Z,74.24
2019-03-08T02:26:22.983Z,74.29
2019-03-08T02:28:51.517Z,74.48
2019-03-08T02:31:19.969Z,74.49
2019-03-08T02:33:48.431Z,74.34
2019-03-08T02:36:17.120Z,74.26
2019-03-08T02:38:45.671Z,74.33
2019-03-08T02:41:14.128Z,74.29
2019-03-08T02:43:42.679Z,74.28
2019-03-08T02:46:11.163Z,74.24
2019-03-08T02:48:39.913Z,74.10
2019-03-08T02:51:08.445Z,73.94
2019-03-08T02:53:36.903Z,73.78
2019-03-08T02:56:05.494Z,73.66
2019-03-08T02:58:34.121Z,73.75
2019-03-08T03:01:02.642Z,73.81
2019-03-08T03:03:31.472Z,73.74
2019-03-08T03:06:00.034Z,73.71
2019-03-08T03:08:28.496Z,73.95
2019-03-08T03:10:56.955Z,74.11
2019-03-08T03:13:25.477Z,74.34
2019-03-08T03:15:53.924Z,74.60
2019-03-08T03:18:22.661Z,74.66
2019-03-08T03:20:51.282Z,74.64
2019-03-08T03:23:19.744Z,74.70
2019-03-08T03:25:50.091Z,74.77
2019-03-08T03:28:18.679Z,74.89
2019-03-08T03:30:47.137Z,74.84
2019-03-08T03:33:15.908Z,74.72
2019-03-08T03:35:44.542Z,74.51
2019-03-08T03:38:13.810Z,74.27
2019-03-08T03:40:43.231Z,74.05
2019-03-08T03:43:11.840Z,73.96
2019-03-08T03:45:40.402Z,73.94
2019-03-08T03:48:08.952Z,74.18
2019-03-08T03:50:37.435Z,74.28
2019-03-08T03:53:05.879Z,74.17
2019-03-08T03:55:34.478Z,74.24
2019-03-08T03:58:02.936Z,74.38
2019-03-08T04:00:31.478Z,74.62
2019-03-08T04:03:01.008Z,74.61
2019-03-08T04:05:29.547Z,74.75
2019-03-08T04:07:58.050Z,74.62
2019-03-08T04:10:26.657Z,74.54
2019-03-08T04:12:56.195Z,74.66
2019-03-08T04:15:24.639Z,74.57
2019-03-08T04:17:53.148Z,74.42
2019-03-08T04:20:21.751Z,74.24
2019-03-08T04:22:50.375Z,74.11
2019-03-08T04:25:18.984Z,74.00
2019-03-08T04:27:47.418Z,73.55
2019-03-08T04:30:18.088Z,73.21
2019-03-08T04:32:47.167Z,73.10
2019-03-08T04:35:15.809Z,73.13
2019-03-08T04:37:44.437Z,73.23
2019-03-08T04:40:14.840Z,73.26
2019-03-08T04:42:43.402Z,73.28
2019-03-08T04:45:16.201Z,73.35
2019-03-08T04:47:44.914Z,73.43
2019-03-08T04:50:15.279Z,73.46
2019-03-08T04:52:43.802Z,73.54
2019-03-08T04:55:16.991Z,73.61
2019-03-08T04:57:45.702Z,73.81
2019-03-08T05:00:20.908Z,73.69
2019-03-08T05:02:49.351Z,73.54
2019-03-08T05:05:18.068Z,73.63
2019-03-08T05:07:46.682Z,73.47
2019-03-08T05:10:19.595Z,73.36
2019-03-08T05:12:48.572Z,73.29
2019-03-08T05:15:17.434Z,73.19
2019-03-08T05:17:45.907Z,73.13
2019-03-08T05:20:14.531Z,72.99
2019-03-08T05:22:43.095Z,73.15
2019-03-08T05:25:14.158Z,73.26
2019-03-08T05:27:42.762Z,73.27
2019-03-08T05:30:16.112Z,73.39
2019-03-08T05:32:45.638Z,73.60
2019-03-08T05:35:15.865Z,73.78
2019-03-08T05:37:46.631Z,73.85
2019-03-08T05:40:15.659Z,74.02
2019-03-08T05:42:44.385Z,74.11
2019-03-08T05:45:14.192Z,74.06
2019-03-08T05:47:42.622Z,73.91
2019-03-08T05:50:12.861Z,73.87
2019-03-08T05:52:41.656Z,73.41
2019-03-08T05:55:13.648Z,73.15
2019-03-08T05:57:43.092Z,72.82
2019-03-08T06:00:18.159Z,72.73
2019-03-08T06:02:46.728Z,72.37
2019-03-08T06:05:15.393Z,72.18
2019-03-08T06:07:44.872Z,72.10
2019-03-08T06:10:36.416Z,72.02
2019-03-08T06:13:06.708Z,71.82
2019-03-08T06:15:35.226Z,71.78
2019-03-08T06:18:03.820Z,71.59
2019-03-08T06:20:32.279Z,71.44
2019-03-08T06:23:00.773Z,71.38
2019-03-08T06:25:29.362Z,71.26
2019-03-08T06:27:57.883Z,71.21
2019-03-08T06:30:26.404Z,71.06
2019-03-08T06:32:55.214Z,71.02
2019-03-08T06:35:23.797Z,70.94
2019-03-08T06:37:52.335Z,70.63
2019-03-08T06:40:21.114Z,70.65
2019-03-08T06:42:49.571Z,69.78
2019-03-08T06:45:18.892Z,69.20
2019-03-08T06:47:47.689Z,68.67
2019-03-08T06:50:16.449Z,68.41
2019-03-08T06:52:45.274Z,68.20
2019-03-08T06:55:15.092Z,67.95
2019-03-08T06:57:43.687Z,67.92
2019-03-08T07:00:21.944Z,67.69
2019-03-08T07:02:50.404Z,67.49
2019-03-08T07:05:18.858Z,66.93
2019-03-08T07:07:47.491Z,66.79
2019-03-08T07:10:16.028Z,66.55
2019-03-08T07:12:44.480Z,66.15
2019-03-08T07:15:13.212Z,66.19
2019-03-08T07:17:41.669Z,66.06
2019-03-08T07:20:14.926Z,65.78
2019-03-08T07:22:56.891Z,65.07
2019-03-08T07:25:51.144Z,64.73
2019-03-08T07:28:30.670Z,64.34
2019-03-08T07:31:17.122Z,63.74
2019-03-08T07:33:53.092Z,62.24
2019-03-08T07:36:24.883Z,62.43
2019-03-08T07:39:11.402Z,61.56
2019-03-08T07:41:50.194Z,61.32
2019-03-08T07:44:23.455Z,59.84
2019-03-08T07:47:09.886Z,59.14
2019-03-08T07:49:40.147Z,58.37
2019-03-08T07:52:15.943Z,57.01
2019-03-08T07:54:56.091Z,57.58
2019-03-08T07:57:44.161Z,57.06
2019-03-08T08:00:26.074Z,57.13
2019-03-08T08:03:03.298Z,57.35
2019-03-08T08:05:30.941Z,56.38
2019-03-08T08:08:01.052Z,56.25
2019-03-08T08:10:49.385Z,57.02
2019-03-08T08:13:28.674Z,56.38
2019-03-08T08:16:04.672Z,56.12
2019-03-08T08:18:53.229Z,56.29
2019-03-08T08:21:23.450Z,56.55
2019-03-08T08:24:08.878Z,55.95
2019-03-08T08:26:39.080Z,56.30
2019-03-08T08:29:09.181Z,55.50
2019-03-08T08:31:44.976Z,55.02
2019-03-08T08:34:26.678Z,55.00
2019-03-08T08:37:02.765Z,55.22
2019-03-08T08:39:48.969Z,54.39
2019-03-08T08:42:28.026Z,53.22
2019-03-08T08:44:58.149Z,53.21
2019-03-08T08:47:43.980Z,52.09
2019-03-08T08:50:21.271Z,51.54
2019-03-08T08:52:51.439Z,52.08
2019-03-08T08:55:21.546Z,52.41
2019-03-08T08:57:51.726Z,51.20
2019-03-08T09:00:27.753Z,51.20
2019-03-08T09:02:58.033Z,50.22
2019-03-08T09:05:33.863Z,51.18
2019-03-08T09:08:04.039Z,50.02
2019-03-08T09:10:43.220Z,49.78
2019-03-08T09:13:13.409Z,49.51
2019-03-08T09:15:43.503Z,49.64
2019-03-08T09:18:17.393Z,49.16
2019-03-08T09:20:47.511Z,49.55
2019-03-08T09:23:20.394Z,49.44
2019-03-08T09:26:05.866Z,49.40
2019-03-08T09:28:38.703Z,48.27
2019-03-08T09:31:14.992Z,50.12
2019-03-08T09:33:45.094Z,49.39
2019-03-08T09:36:15.199Z,49.88
2019-03-08T09:38:48.509Z,48.96
2019-03-08T09:41:22.112Z,48.01
2019-03-08T09:43:52.498Z,49.36
2019-03-08T09:46:22.660Z,49.83
2019-03-08T09:49:05.742Z,48.88
2019-03-08T09:51:44.833Z,49.35
2019-03-08T09:54:18.298Z,49.23
2019-03-08T09:56:51.151Z,49.37
2019-03-08T09:59:23.991Z,50.69
2019-03-08T10:02:00.028Z,50.67
2019-03-08T10:04:46.402Z,49.94
2019-03-08T10:07:19.370Z,50.42
2019-03-08T10:09:55.412Z,49.72
2019-03-08T10:12:34.405Z,49.99
2019-03-08T10:15:07.337Z,49.82
2019-03-08T10:17:55.518Z,49.64
2019-03-08T10:20:25.891Z,49.88
2019-03-08T10:22:55.999Z,49.54
2019-03-08T10:25:42.427Z,49.72
2019-03-08T10:28:29.095Z,50.26
2019-03-08T10:31:01.807Z,48.93
2019-03-08T10:33:34.368Z,48.48
2019-03-08T10:36:21.186Z,48.19
2019-03-08T10:39:07.418Z,49.17
2019-03-08T10:41:38.511Z,48.94
2019-03-08T10:44:11.239Z,49.16
2019-03-08T10:46:47.933Z,48.06
2019-03-08T10:49:20.759Z,47.78
2019-03-08T10:51:51.634Z,49.33
2019-03-08T10:54:33.806Z,49.12
2019-03-08T10:57:03.974Z,48.32
2019-03-08T10:59:36.859Z,49.50
2019-03-08T11:02:23.632Z,48.44
2019-03-08T11:04:53.812Z,48.02
2019-03-08T11:07:23.908Z,48.24
2019-03-08T11:09:57.006Z,49.55
2019-03-08T11:12:29.567Z,49.71
2019-03-08T11:15:11.593Z,50.15
2019-03-08T11:17:50.790Z,50.40
2019-03-08T11:20:30.906Z,51.05
2019-03-08T11:23:06.817Z,50.75
2019-03-08T11:25:45.779Z,50.71
2019-03-08T11:28:21.173Z,49.12
2019-03-08T11:31:03.878Z,50.13
2019-03-08T11:33:40.382Z,49.94
2019-03-08T11:36:10.544Z,49.81
2019-03-08T11:38:49.656Z,50.67
2019-03-08T11:41:19.844Z,51.21
2019-03-08T11:44:08.095Z,50.45
2019-03-08T11:46:38.273Z,50.32
2019-03-08T11:49:11.077Z,51.23
2019-03-08T11:51:53.124Z,50.72
2019-03-08T11:54:26.190Z,50.63
2019-03-08T11:57:12.836Z,51.06
2019-03-08T11:59:42.935Z,51.19
2019-03-08T12:02:37.348Z,52.27
2019-03-08T12:05:00.061Z,51.20
2019-03-08T12:07:42.222Z,51.65
2019-03-08T12:10:12.867Z,51.69
2019-03-08T12:12:46.625Z,52.03
2019-03-08T12:15:28.394Z,52.17
2019-03-08T12:18:16.703Z,52.10
2019-03-08T12:20:46.962Z,51.74
2019-03-08T12:23:33.225Z,52.95
2019-03-08T12:26:09.520Z,52.50
2019-03-08T12:28:42.423Z,52.05
2019-03-08T12:31:15.599Z,50.58
2019-03-08T12:34:01.934Z,51.23
2019-03-08T12:36:47.062Z,49.13
2019-03-08T12:39:35.544Z,50.22
2019-03-08T12:42:05.904Z,50.33
2019-03-08T12:44:41.627Z,50.51
2019-03-08T12:47:11.926Z,51.17
2019-03-08T12:49:50.871Z,52.41
2019-03-08T12:52:21.051Z,52.42
2019-03-08T12:54:51.959Z,51.74
2019-03-08T12:57:27.804Z,51.93
2019-03-08T13:00:06.793Z,50.78
2019-03-08T13:02:39.777Z,51.29
2019-03-08T13:05:15.848Z,52.34
2019-03-08T13:07:48.907Z,52.15
2019-03-08T13:10:17.362Z,51.28
2019-03-08T13:12:45.914Z,51.96
2019-03-08T13:15:16.325Z,51.58
2019-03-08T13:17:44.844Z,52.89
2019-03-08T13:20:17.942Z,52.31
2019-03-08T13:22:46.577Z,52.19
2019-03-08T13:25:15.374Z,51.83
2019-03-08T13:27:43.829Z,52.40
2019-03-08T13:30:15.446Z,53.76
2019-03-08T13:32:43.917Z,53.01
2019-03-08T13:35:14.015Z,53.21
2019-03-08T13:37:42.712Z,53.92
2019-03-08T13:40:14.028Z,53.54
2019-03-08T13:42:42.493Z,52.58
2019-03-08T13:45:14.379Z,51.91
2019-03-08T13:47:42.979Z,51.80
2019-03-08T13:50:15.344Z,50.93
2019-03-08T13:52:44.170Z,50.82
2019-03-08T13:55:15.315Z,52.12
2019-03-08T13:57:45.818Z,51.22
2019-03-08T14:00:18.832Z,51.39
2019-03-08T14:02:47.731Z,51.56
2019-03-08T14:05:16.654Z,50.83
2019-03-08T14:07:45.285Z,50.98
2019-03-08T14:10:15.869Z,51.61
2019-03-08T14:12:44.397Z,51.67
2019-03-08T14:15:15.089Z,51.73
2019-03-08T14:17:43.604Z,52.55
2019-03-08T14:20:23.078Z,54.10
2019-03-08T14:22:51.573Z,54.36
2019-03-08T14:25:20.160Z,53.57
2019-03-08T14:27:48.871Z,54.38
2019-03-08T14:30:32.110Z,54.50
2019-03-08T14:33:01.637Z,54.90
2019-03-08T14:35:30.970Z,54.62
2019-03-08T14:37:59.617Z,54.75
2019-03-08T14:40:46.226Z,53.54
2019-03-08T14:43:19.174Z,53.69
2019-03-08T14:45:49.639Z,52.04
2019-03-08T14:48:18.108Z,51.78
2019-03-08T14:50:46.596Z,52.06
2019-03-08T14:53:15.393Z,51.53
2019-03-08T14:55:43.848Z,51.60
2019-03-08T14:58:12.445Z,52.06
2019-03-08T15:00:41.051Z,52.46
2019-03-08T15:03:12.291Z,53.29
2019-03-08T15:05:40.747Z,53.99
2019-03-08T15:08:09.284Z,53.89
2019-03-08T15:10:39.747Z,52.33
2019-03-08T15:13:08.184Z,51.90
2019-03-08T15:15:36.750Z,53.69
2019-03-08T15:18:05.309Z,53.02
2019-03-08T15:20:34.197Z,53.94
2019-03-08T15:23:02.713Z,53.43
2019-03-08T15:25:31.433Z,54.19
2019-03-08T15:28:00.314Z,54.83
2019-03-08T15:30:28.794Z,54.83
2019-03-08T15:32:57.259Z,54.93
2019-03-08T15:35:25.933Z,55.30
2019-03-08T15:37:54.391Z,55.89
2019-03-08T15:40:23.548Z,55.90
2019-03-08T15:42:52.257Z,56.80
2019-03-08T15:45:21.025Z,56.82
2019-03-08T15:47:49.649Z,56.78
2019-03-08T15:50:22.031Z,56.61
2019-03-08T15:52:51.461Z,56.85
2019-03-08T15:55:20.035Z,56.87
2019-03-08T15:57:48.705Z,56.62
2019-03-08T16:00:21.899Z,57.68
2019-03-08T16:02:50.679Z,57.26
2019-03-08T16:05:23.895Z,57.21
2019-03-08T16:07:51.640Z,57.53
2019-03-08T16:10:23.898Z,57.23
2019-03-08T16:12:52.356Z,56.45
2019-03-08T16:15:20.883Z,56.82
2019-03-08T16:17:49.449Z,57.43
2019-03-08T16:20:21.887Z,55.11
2019-03-08T16:22:50.497Z,55.66
2019-03-08T16:25:19.307Z,55.90
2019-03-08T16:27:47.909Z,55.63
2019-03-08T16:30:23.985Z,57.23
2019-03-08T16:32:54.366Z,57.97
2019-03-08T16:35:22.987Z,57.20
2019-03-08T16:38:08.121Z,57.39
2019-03-08T16:40:43.921Z,57.25
2019-03-08T16:43:26.098Z,57.79
2019-03-08T16:46:09.204Z,58.36
2019-03-08T16:48:44.144Z,59.08
2019-03-08T16:51:26.054Z,59.92
2019-03-08T16:54:07.592Z,60.27
2019-03-08T16:56:49.587Z,60.89
2019-03-08T16:59:22.253Z,62.24
2019-03-08T17:01:55.856Z,62.96
2019-03-08T17:04:26.121Z,63.77
2019-03-08T17:07:02.331Z,67.44
2019-03-08T17:09:48.806Z,71.64
2019-03-08T17:12:33.952Z,74.50
2019-03-08T17:15:13.034Z,76.37
2019-03-08T17:17:45.941Z,78.52
2019-03-08T17:20:19.026Z,79.18
2019-03-08T17:22:49.108Z,78.89
2019-03-08T17:25:19.222Z,78.72
2019-03-08T17:27:55.156Z,78.39
2019-03-08T17:30:28.102Z,77.62
2019-03-08T17:33:13.171Z,77.75
2019-03-08T17:35:53.360Z,78.00
2019-03-08T17:38:29.958Z,77.23
2019-03-08T17:41:00.056Z,77.19
2019-03-08T17:43:36.168Z,79.58
2019-03-08T17:46:18.455Z,81.12
2019-03-08T17:48:54.683Z,82.66
2019-03-08T17:51:41.404Z,83.50
2019-03-08T17:54:14.420Z,83.05
2019-03-08T17:56:50.937Z,83.75
2019-03-08T17:59:21.263Z,84.28
2019-03-08T18:02:00.986Z,84.95
2019-03-08T18:04:31.558Z,85.75
2019-03-08T18:07:04.487Z,86.07
2019-03-08T18:09:34.653Z,85.99
2019-03-08T18:12:13.776Z,86.09
2019-03-08T18:14:55.888Z,85.80
2019-03-08T18:17:26.080Z,85.76
2019-03-08T18:19:56.168Z,85.25
2019-03-08T18:22:42.747Z,84.56
2019-03-08T18:25:25.242Z,83.78
2019-03-08T18:27:55.406Z,83.03
2019-03-08T18:30:37.566Z,82.24
2019-03-08T18:33:17.011Z,82.04
2019-03-08T18:35:47.115Z,81.74
2019-03-08T18:38:19.699Z,80.90
2019-03-08T18:40:49.936Z,80.50
2019-03-08T18:43:22.805Z,80.14
2019-03-08T18:45:59.938Z,79.92
2019-03-08T18:48:45.275Z,79.88
2019-03-08T18:51:15.698Z,79.71
2019-03-08T18:54:03.619Z,79.62
2019-03-08T18:56:46.088Z,79.42
2019-03-08T18:59:18.952Z,79.46
2019-03-08T19:01:51.937Z,79.58
2019-03-08T19:04:22.334Z,79.28
2019-03-08T19:07:12.507Z,79.46
2019-03-08T19:09:51.468Z,79.57
2019-03-08T19:12:24.471Z,78.83
2019-03-08T19:14:57.354Z,78.83
2019-03-08T19:17:30.087Z,78.39
2019-03-08T19:20:00.363Z,78.43
2019-03-08T19:22:39.547Z,78.36
2019-03-08T19:25:11.359Z,77.36
2019-03-08T19:27:44.178Z,77.27
2019-03-08T19:30:17.819Z,77.44
2019-03-08T19:32:53.688Z,77.26
2019-03-08T19:35:27.169Z,77.01
2019-03-08T19:38:15.385Z,77.35
2019-03-08T19:40:45.552Z,77.64
2019-03-08T19:43:21.675Z,77.79
2019-03-08T19:45:51.943Z,78.02
2019-03-08T19:48:38.230Z,78.08
2019-03-08T19:51:14.538Z,78.20
2019-03-08T19:54:02.828Z,78.19
2019-03-08T19:56:48.264Z,78.28
2019-03-08T19:59:27.502Z,78.74
2019-03-08T20:01:57.772Z,79.02
2019-03-08T20:04:39.787Z,79.04
2019-03-08T20:07:15.857Z,79.12
2019-03-08T20:09:54.889Z,79.44
2019-03-08T20:12:30.829Z,79.77
2019-03-08T20:15:06.843Z,79.82
2019-03-08T20:17:37.126Z,80.02
2019-03-08T20:20:27.808Z,80.26
2019-03-08T20:23:10.303Z,80.09
2019-03-08T20:25:52.044Z,79.97
2019-03-08T20:28:22.345Z,80.14
2019-03-08T20:30:55.313Z,80.33
2019-03-08T20:33:40.837Z,80.69
2019-03-08T20:36:13.705Z,80.83
2019-03-08T20:38:46.850Z,80.97
2019-03-08T20:41:32.206Z,81.02
2019-03-08T20:44:02.449Z,81.12
2019-03-08T20:46:32.651Z,81.18
2019-03-08T20:49:01.141Z,81.37
2019-03-08T20:51:29.788Z,81.44
2019-03-08T20:53:58.250Z,81.49
2019-03-08T20:56:26.710Z,81.65
2019-03-08T20:58:55.538Z,81.82
2019-03-08T21:01:24.180Z,81.98
2019-03-08T21:03:52.657Z,82.01
2019-03-08T21:06:21.290Z,82.14
2019-03-08T21:08:50.341Z,82.51
2019-03-08T21:11:18.864Z,82.89
2019-03-08T21:13:47.488Z,82.97
2019-03-08T21:16:15.949Z,82.98
2019-03-08T21:18:44.382Z,82.85
2019-03-08T21:21:13.036Z,82.70
2019-03-08T21:23:41.606Z,82.66
2019-03-08T21:26:29.347Z,82.75
2019-03-08T21:28:57.807Z,82.83
2019-03-08T21:31:26.288Z,82.88
2019-03-08T21:33:54.959Z,82.98
2019-03-08T21:36:23.490Z,82.96
2019-03-08T21:38:52.268Z,83.10
2019-03-08T21:41:23.366Z,83.24
2019-03-08T21:43:55.231Z,83.39
2019-03-08T21:46:23.814Z,83.55
2019-03-08T21:48:52.485Z,83.62
2019-03-08T21:51:21.116Z,83.52
2019-03-08T21:53:49.754Z,83.45
2019-03-08T21:56:18.335Z,83.53
2019-03-08T21:58:46.802Z,83.68
2019-03-08T22:01:15.922Z,83.79
2019-03-08T22:03:46.137Z,83.83
2019-03-08T22:06:14.691Z,83.84
2019-03-08T22:08:44.797Z,84.01
2019-03-08T22:11:16.855Z,84.01
2019-03-08T22:13:45.440Z,84.19
2019-03-08T22:16:13.941Z,84.42
2019-03-08T22:18:42.567Z,84.73
2019-03-08T22:21:11.053Z,84.98
2019-03-08T22:23:39.546Z,85.26
2019-03-08T22:26:08.165Z,85.32
2019-03-08T22:28:36.627Z,85.46
2019-03-08T22:31:05.440Z,85.82
2019-03-08T22:33:34.124Z,86.18
2019-03-08T22:36:02.596Z,86.37
2019-03-08T22:38:31.068Z,86.50
2019-03-08T22:40:59.688Z,86.76
2019-03-08T22:43:28.225Z,86.81
2019-03-08T22:45:56.681Z,86.87
2019-03-08T22:48:25.341Z,87.08
2019-03-08T22:50:53.879Z,87.23
2019-03-08T22:53:22.390Z,87.38
2019-03-08T22:55:52.859Z,87.54
2019-03-08T22:58:21.312Z,87.53
2019-03-08T23:01:00.437Z,87.66
2019-03-08T23:03:30.077Z,87.67
2019-03-08T23:05:58.558Z,87.88
2019-03-08T23:08:27.463Z,88.24
2019-03-08T23:10:55.994Z,88.42
2019-03-08T23:13:24.746Z,88.50
2019-03-08T23:15:53.410Z,88.50
2019-03-08T23:18:21.923Z,88.42
2019-03-08T23:20:50.445Z,88.06
2019-03-08T23:23:19.067Z,87.66
2019-03-08T23:25:47.525Z,87.32
2019-03-08T23:28:17.700Z,87.06
2019-03-08T23:30:47.932Z,86.84
2019-03-08T23:33:16.431Z,86.73
2019-03-08T23:35:45.847Z,86.53
2019-03-08T23:38:14.476Z,86.21
2019-03-08T23:40:43.134Z,85.83
2019-03-08T23:43:17.394Z,85.51
2019-03-08T23:45:45.921Z,85.24
2019-03-08T23:48:14.463Z,85.06
2019-03-08T23:50:42.922Z,85.06
2019-03-08T23:53:11.542Z,84.96
2019-03-08T23:55:40.066Z,84.83
2019-03-08T23:58:08.870Z,84.70
